KPGD

Punta Gorda Airport

Punta Gorda, Florida, USA
METAR KPGD 110153Z AUTO 01004KT 10SM FEW060 12/09 A3019 RMK AO2 SLP222 T01170089
Observed Flight Rules
Dec-11 @ 01:53 UTC (an hour ago) Visual Flight Rules
Wind Visibility Clouds
10° at 4 knots 10 miles
  • Few at 6,000' AGL
Temperatures Readings
Current 12°C / 54°F
Dewpoint 9°C / 48°F
Humidity 82%
Altimeter 30.19" Hg
Pressure 1022.2 hPa
Elevation 7
METAR KPGD 110153Z AUTO 01004KT 10SM FEW060 12/09 A3019 RMK AO2 SLP222 T01170089
Observed Flight Rules
Dec-11 @ 01:53 UTC
(an hour ago)
VFR
Wind Visibility
10° at 4 knots 10 miles
Clouds
  • Few at 6,000' AGL
Temperature Dewpoint
12°C / 54°F 9°C / 48°F
Humidity Altimeter Pressure
82% 30.19" Hg 1022.2 hPa